createdAt,value
2023-06-25T00:00:11.925Z,7.35
2023-06-25T00:03:01.399Z,6.68
2023-06-25T00:05:49.437Z,7.18
2023-06-25T00:08:37.415Z,6.18
2023-06-25T00:11:25.165Z,6.88
2023-06-25T00:14:13.234Z,6.63
2023-06-25T00:17:01.186Z,6.80
2023-06-25T00:19:50.461Z,7.68
2023-06-25T00:22:38.404Z,7.22
2023-06-25T00:25:27.746Z,7.13
2023-06-25T00:28:15.655Z,7.07
2023-06-25T00:31:03.407Z,7.35
2023-06-25T00:33:51.346Z,7.05
2023-06-25T00:36:41.704Z,8.07
2023-06-25T00:39:30.308Z,7.55
2023-06-25T00:42:19.095Z,7.97
2023-06-25T00:45:08.052Z,7.63
2023-06-25T00:47:56.540Z,7.57
2023-06-25T00:50:44.639Z,7.28
2023-06-25T00:53:36.763Z,7.68
2023-06-25T00:56:29.235Z,7.00
2023-06-25T00:59:17.820Z,7.32
2023-06-25T01:02:14.931Z,6.97
2023-06-25T01:05:10.313Z,7.57
2023-06-25T01:08:01.054Z,6.78
2023-06-25T01:10:50.720Z,6.90
2023-06-25T01:13:38.487Z,7.57
2023-06-25T01:16:26.698Z,7.28
2023-06-25T01:19:14.403Z,7.20
2023-06-25T01:22:04.588Z,7.13
2023-06-25T01:24:53.844Z,8.02
2023-06-25T01:27:41.629Z,7.57
2023-06-25T01:30:32.810Z,6.78
2023-06-25T01:33:21.492Z,6.95
2023-06-25T01:36:10.153Z,7.45
2023-06-25T01:38:57.884Z,6.82
2023-06-25T01:41:47.906Z,6.45
2023-06-25T01:44:35.898Z,7.25
2023-06-25T01:47:23.754Z,8.10
2023-06-25T01:50:11.769Z,8.07
2023-06-25T01:52:59.738Z,8.05
2023-06-25T01:55:47.672Z,8.23
2023-06-25T01:58:37.062Z,7.90
2023-06-25T02:01:25.373Z,7.45
2023-06-25T02:04:13.121Z,7.85
2023-06-25T02:07:01.335Z,6.93
2023-06-25T02:09:49.295Z,7.05
2023-06-25T02:12:37.111Z,7.43
2023-06-25T02:15:26.343Z,7.35
2023-06-25T02:18:14.140Z,7.78
2023-06-25T02:21:02.019Z,7.55
2023-06-25T02:23:49.812Z,7.70
2023-06-25T02:26:37.746Z,7.65
2023-06-25T02:29:25.486Z,7.43
2023-06-25T02:32:14.825Z,8.52
2023-06-25T02:35:02.639Z,7.70
2023-06-25T02:37:50.543Z,8.75
2023-06-25T02:40:38.301Z,8.20
2023-06-25T02:43:26.076Z,7.35
2023-06-25T02:46:13.921Z,7.90
2023-06-25T02:49:03.201Z,7.85
2023-06-25T02:51:51.107Z,8.13
2023-06-25T02:54:38.998Z,7.45
2023-06-25T02:57:30.575Z,7.63
2023-06-25T03:00:19.102Z,7.82
2023-06-25T03:03:07.036Z,8.07
2023-06-25T03:05:56.346Z,7.90
2023-06-25T03:08:44.245Z,8.02
2023-06-25T03:11:32.190Z,7.88
2023-06-25T03:14:34.233Z,7.28
2023-06-25T03:17:23.349Z,6.78
2023-06-25T03:20:12.576Z,7.45
2023-06-25T03:23:02.004Z,8.18
2023-06-25T03:25:49.921Z,7.70
2023-06-25T03:28:37.590Z,7.80
2023-06-25T03:31:25.597Z,8.10
2023-06-25T03:34:13.451Z,8.55
2023-06-25T03:37:01.446Z,8.10
2023-06-25T03:39:50.618Z,8.65
2023-06-25T03:42:38.358Z,8.57
2023-06-25T03:45:26.329Z,10.07
2023-06-25T03:48:14.297Z,9.77
2023-06-25T03:51:02.366Z,9.25
2023-06-25T03:53:50.215Z,8.45
2023-06-25T03:56:39.624Z,9.52
2023-06-25T03:59:27.453Z,8.73
2023-06-25T04:02:15.492Z,9.95
2023-06-25T04:05:03.413Z,9.70
2023-06-25T04:07:51.253Z,8.65
2023-06-25T04:10:39.695Z,11.00
2023-06-25T04:13:28.974Z,9.30
2023-06-25T04:16:16.980Z,10.32
2023-06-25T04:19:04.749Z,9.65
2023-06-25T04:21:52.760Z,10.00
2023-06-25T04:24:40.478Z,10.15
2023-06-25T04:27:28.494Z,11.35
2023-06-25T04:30:17.904Z,10.60
2023-06-25T04:33:06.049Z,8.55
2023-06-25T04:35:53.934Z,9.15
2023-06-25T04:38:41.873Z,9.07
2023-06-25T04:41:29.683Z,9.18
2023-06-25T04:44:17.608Z,8.63
2023-06-25T04:47:07.183Z,7.88
2023-06-25T04:49:55.412Z,7.82
2023-06-25T04:52:43.428Z,7.30
2023-06-25T04:55:31.256Z,7.35
2023-06-25T04:58:19.160Z,7.90
2023-06-25T05:01:06.940Z,7.45
2023-06-25T05:03:56.540Z,7.82
2023-06-25T05:06:44.540Z,7.38
2023-06-25T05:09:32.394Z,9.07
2023-06-25T05:12:20.234Z,7.78
2023-06-25T05:15:08.970Z,8.50
2023-06-25T05:17:57.009Z,7.68
2023-06-25T05:20:46.178Z,8.85
2023-06-25T05:23:40.655Z,8.57
2023-06-25T05:26:28.909Z,7.47
2023-06-25T05:29:16.774Z,8.10
2023-06-25T05:32:07.490Z,7.65
2023-06-25T05:34:57.371Z,7.97
2023-06-25T05:37:46.728Z,6.70
2023-06-25T05:40:34.515Z,7.65
2023-06-25T05:43:22.540Z,7.25
2023-06-25T05:46:12.762Z,8.05
2023-06-25T05:49:00.766Z,7.28
2023-06-25T05:51:48.598Z,6.72
2023-06-25T05:54:37.805Z,6.32
2023-06-25T05:57:26.320Z,7.32
2023-06-25T06:00:14.542Z,6.43
2023-06-25T06:03:02.609Z,6.80
2023-06-25T06:05:50.520Z,6.97
2023-06-25T06:08:38.512Z,7.10
2023-06-25T06:11:29.102Z,5.90
2023-06-25T06:14:17.022Z,6.22
2023-06-25T06:17:05.174Z,6.93
2023-06-25T06:19:53.896Z,7.05
2023-06-25T06:22:42.514Z,6.45
2023-06-25T06:25:30.240Z,5.85
2023-06-25T06:28:19.444Z,6.60
2023-06-25T06:31:07.316Z,7.22
2023-06-25T06:33:55.255Z,7.90
2023-06-25T06:36:43.063Z,6.65
2023-06-25T06:39:31.047Z,7.70
2023-06-25T06:42:18.831Z,6.78
2023-06-25T06:45:09.117Z,7.38
2023-06-25T06:47:56.949Z,6.80
2023-06-25T06:50:44.985Z,7.90
2023-06-25T06:53:32.777Z,7.90
2023-06-25T06:56:20.648Z,8.18
2023-06-25T06:59:08.500Z,7.47
2023-06-25T07:01:57.909Z,8.65
2023-06-25T07:04:46.777Z,8.02
2023-06-25T07:07:34.598Z,8.48
2023-06-25T07:10:22.488Z,6.82
2023-06-25T07:13:10.362Z,6.75
2023-06-25T07:15:58.279Z,7.55
2023-06-25T07:18:47.444Z,7.13
2023-06-25T07:21:35.384Z,6.47
2023-06-25T07:24:23.233Z,6.03
2023-06-25T07:27:11.214Z,7.00
2023-06-25T07:29:59.145Z,7.93
2023-06-25T07:32:47.209Z,7.03
2023-06-25T07:35:36.510Z,7.00
2023-06-25T07:38:24.566Z,6.30
2023-06-25T07:41:12.565Z,6.68
2023-06-25T07:44:00.305Z,7.03
2023-06-25T07:46:48.349Z,6.55
2023-06-25T07:49:36.220Z,8.25
2023-06-25T07:52:25.602Z,7.40
2023-06-25T07:55:13.444Z,8.93
2023-06-25T07:58:01.407Z,7.78
2023-06-25T08:00:49.267Z,8.93
2023-06-25T08:03:37.421Z,8.05
2023-06-25T08:06:25.441Z,8.60
2023-06-25T08:09:14.766Z,7.93
2023-06-25T08:12:02.771Z,9.07
2023-06-25T08:14:51.064Z,8.50
2023-06-25T08:17:38.914Z,9.27
2023-06-25T08:20:26.686Z,8.65
2023-06-25T08:23:14.702Z,9.30
2023-06-25T08:26:03.906Z,8.98
2023-06-25T08:28:52.209Z,8.55
2023-06-25T08:31:40.095Z,9.45
2023-06-25T08:34:28.281Z,9.35
2023-06-25T08:37:18.726Z,9.50
2023-06-25T08:40:07.829Z,9.20
2023-06-25T08:42:57.032Z,8.65
2023-06-25T08:45:44.788Z,12.55
2023-06-25T08:48:35.736Z,12.23
2023-06-25T08:51:25.367Z,11.48
2023-06-25T08:54:13.988Z,13.00
2023-06-25T08:57:01.707Z,10.98
2023-06-25T08:59:51.155Z,10.15
2023-06-25T09:02:38.944Z,10.95
2023-06-25T09:05:28.145Z,9.35
2023-06-25T09:08:16.326Z,8.65
2023-06-25T09:11:04.198Z,9.20
2023-06-25T09:13:52.300Z,10.07
2023-06-25T09:16:51.937Z,8.73
2023-06-25T09:19:44.974Z,8.85
2023-06-25T09:22:33.022Z,8.27
2023-06-25T09:25:21.014Z,8.52
2023-06-25T09:28:11.608Z,8.85
2023-06-25T09:30:59.494Z,8.70
2023-06-25T09:33:53.525Z,8.80
2023-06-25T09:36:41.454Z,13.05
2023-06-25T09:39:29.285Z,19.77
2023-06-25T09:42:20.658Z,12.43
2023-06-25T09:45:11.434Z,10.95
2023-06-25T09:47:59.529Z,13.85
2023-06-25T09:50:50.453Z,18.60
2023-06-25T09:53:41.213Z,10.35
2023-06-25T09:56:29.757Z,10.45
2023-06-25T09:59:18.363Z,10.50
2023-06-25T10:02:09.048Z,9.75
2023-06-25T10:04:56.997Z,9.98
2023-06-25T10:07:47.423Z,9.77
2023-06-25T10:10:35.668Z,10.45
2023-06-25T10:13:24.056Z,9.40
2023-06-25T10:16:11.989Z,9.65
2023-06-25T10:19:00.537Z,9.57
2023-06-25T10:21:59.189Z,9.60
2023-06-25T10:24:52.210Z,10.27
2023-06-25T10:27:40.877Z,10.52
2023-06-25T10:30:37.948Z,9.10
2023-06-25T10:33:25.872Z,8.57
2023-06-25T10:36:14.003Z,8.82
2023-06-25T10:39:02.263Z,9.15
2023-06-25T10:41:51.378Z,8.82
2023-06-25T10:44:39.318Z,8.32
2023-06-25T10:47:27.155Z,8.63
2023-06-25T10:50:18.818Z,9.18
2023-06-25T10:53:14.033Z,8.13
2023-06-25T10:56:01.834Z,8.05
2023-06-25T10:58:57.692Z,8.38
2023-06-25T11:01:45.548Z,9.35
2023-06-25T11:04:33.598Z,9.10
2023-06-25T11:07:21.680Z,8.68
2023-06-25T11:10:09.877Z,9.02
2023-06-25T11:12:57.655Z,9.27
2023-06-25T11:15:47.104Z,7.95
2023-06-25T11:18:34.894Z,8.90
2023-06-25T11:21:22.760Z,7.60
2023-06-25T11:24:11.747Z,8.27
2023-06-25T11:27:00.185Z,7.65
2023-06-25T11:29:49.293Z,8.13
2023-06-25T11:32:40.639Z,7.68
2023-06-25T11:35:28.521Z,8.13
2023-06-25T11:38:26.578Z,8.43
2023-06-25T11:41:14.314Z,7.63
2023-06-25T11:44:02.306Z,8.38
2023-06-25T11:46:52.329Z,8.48
2023-06-25T11:49:41.622Z,8.48
2023-06-25T11:52:29.548Z,8.00
2023-06-25T11:55:20.038Z,9.68
2023-06-25T11:58:08.024Z,13.25
2023-06-25T12:00:55.901Z,9.50
2023-06-25T12:03:43.942Z,10.68
2023-06-25T12:06:33.210Z,7.72
2023-06-25T12:09:20.963Z,8.07
2023-06-25T12:12:09.376Z,8.05
2023-06-25T12:14:57.097Z,8.07
2023-06-25T12:17:44.845Z,8.07
2023-06-25T12:20:32.842Z,7.45
2023-06-25T12:23:22.125Z,7.95
2023-06-25T12:26:09.822Z,6.88
2023-06-25T12:28:57.759Z,7.57
2023-06-25T12:31:45.581Z,6.60
2023-06-25T12:34:33.691Z,6.60
2023-06-25T12:37:21.467Z,6.63
2023-06-25T12:40:11.540Z,6.65
2023-06-25T12:43:00.873Z,6.75
2023-06-25T12:45:49.687Z,6.25
2023-06-25T12:48:38.904Z,7.05
2023-06-25T12:51:26.724Z,7.10
2023-06-25T12:54:14.706Z,6.60
2023-06-25T12:57:03.908Z,6.18
2023-06-25T12:59:51.895Z,7.30
2023-06-25T13:02:40.444Z,6.55
2023-06-25T13:05:28.417Z,6.43
2023-06-25T13:08:16.176Z,19.08
2023-06-25T13:11:04.430Z,7.43
2023-06-25T13:13:53.508Z,7.68
2023-06-25T13:16:41.644Z,6.03
2023-06-25T13:19:29.548Z,5.97
2023-06-25T13:22:17.546Z,7.65
2023-06-25T13:25:06.128Z,6.20
2023-06-25T13:27:53.942Z,7.38
2023-06-25T13:30:43.740Z,7.15
2023-06-25T13:33:31.567Z,7.85
2023-06-25T13:36:19.544Z,7.43
2023-06-25T13:39:07.487Z,6.93
2023-06-25T13:41:55.460Z,11.65
2023-06-25T13:44:43.280Z,6.55
2023-06-25T13:47:32.504Z,6.90
2023-06-25T13:50:20.229Z,6.25
2023-06-25T13:53:08.154Z,6.20
2023-06-25T13:55:56.582Z,7.20
2023-06-25T13:58:44.493Z,6.40
2023-06-25T14:01:32.509Z,8.98
2023-06-25T14:04:21.874Z,7.05
2023-06-25T14:07:10.067Z,7.13
2023-06-25T14:09:58.047Z,6.57
2023-06-25T14:12:45.833Z,7.50
2023-06-25T14:15:33.568Z,8.65
2023-06-25T14:18:21.389Z,9.15
2023-06-25T14:21:10.538Z,8.63
2023-06-25T14:23:58.294Z,8.65
2023-06-25T14:26:46.210Z,9.27
2023-06-25T14:29:33.923Z,9.07
2023-06-25T14:32:22.185Z,9.35
2023-06-25T14:35:10.269Z,8.60
2023-06-25T14:37:59.534Z,9.57
2023-06-25T14:40:47.321Z,8.63
2023-06-25T14:43:35.095Z,9.18
2023-06-25T14:46:23.049Z,8.93
2023-06-25T14:49:10.932Z,8.98
2023-06-25T14:51:58.682Z,9.68
2023-06-25T14:54:47.815Z,9.05
2023-06-25T14:57:35.790Z,10.95
2023-06-25T15:00:23.912Z,8.88
2023-06-25T15:03:12.120Z,9.27
2023-06-25T15:06:09.943Z,9.50
2023-06-25T15:09:01.633Z,9.05
2023-06-25T15:11:51.061Z,9.90
2023-06-25T15:14:38.874Z,9.85
2023-06-25T15:17:26.717Z,9.85
2023-06-25T15:20:14.425Z,9.25
2023-06-25T15:23:02.186Z,11.52
2023-06-25T15:25:53.503Z,10.13
2023-06-25T15:31:33.393Z,9.70
2023-06-25T15:34:21.417Z,10.82
2023-06-25T15:37:09.383Z,11.15
2023-06-25T15:39:57.186Z,10.02
2023-06-25T15:42:45.041Z,10.55
2023-06-25T15:45:34.272Z,9.15
2023-06-25T15:48:22.112Z,9.40
2023-06-25T15:51:09.987Z,10.48
2023-06-25T15:53:57.870Z,10.10
2023-06-25T15:56:48.544Z,10.13
2023-06-25T15:59:36.360Z,10.52
2023-06-25T16:02:25.787Z,9.70
2023-06-25T16:05:13.757Z,10.00
2023-06-25T16:08:01.767Z,10.55
2023-06-25T16:10:49.691Z,8.95
2023-06-25T16:13:37.712Z,9.40
2023-06-25T16:16:25.490Z,8.77
2023-06-25T16:19:45.598Z,8.90
2023-06-25T16:22:22.546Z,8.15
2023-06-25T16:25:10.624Z,8.20
2023-06-25T16:27:58.469Z,9.77
2023-06-25T16:30:46.716Z,8.95
2023-06-25T16:33:34.422Z,8.10
2023-06-25T16:36:23.742Z,8.20
2023-06-25T16:39:11.547Z,7.53
2023-06-25T16:41:59.501Z,8.40
2023-06-25T16:44:48.797Z,8.20
2023-06-25T16:47:36.804Z,8.20
2023-06-25T16:50:24.711Z,8.70
2023-06-25T16:53:14.007Z,8.38
2023-06-25T16:56:01.992Z,8.73
2023-06-25T16:58:49.853Z,8.05
2023-06-25T17:01:37.922Z,8.75
2023-06-25T17:04:25.733Z,8.07
2023-06-25T17:07:13.689Z,8.10
2023-06-25T17:10:03.105Z,8.57
2023-06-25T17:12:51.082Z,8.40
2023-06-25T17:15:39.118Z,8.02
2023-06-25T17:18:27.101Z,8.93
2023-06-25T17:21:14.943Z,8.75
2023-06-25T17:24:02.721Z,8.68
2023-06-25T17:26:52.909Z,9.35
2023-06-25T17:29:41.432Z,9.82
2023-06-25T17:32:29.453Z,10.73
2023-06-25T17:35:17.568Z,11.35
2023-06-25T17:38:05.513Z,10.57
2023-06-25T17:40:53.470Z,10.70
2023-06-25T17:43:42.888Z,10.85
2023-06-25T17:46:31.001Z,11.88
2023-06-25T17:49:18.957Z,12.32
2023-06-25T17:52:07.923Z,11.88
2023-06-25T17:54:55.612Z,11.27
2023-06-25T17:57:43.369Z,13.32
2023-06-25T18:00:32.565Z,13.48
2023-06-25T18:03:20.552Z,13.23
2023-06-25T18:06:08.543Z,13.77
2023-06-25T18:08:56.527Z,15.13
2023-06-25T18:11:44.313Z,14.70
2023-06-25T18:14:32.294Z,12.93
2023-06-25T18:17:21.441Z,12.38
2023-06-25T18:20:11.020Z,13.20
2023-06-25T18:22:58.816Z,11.27
2023-06-25T18:25:46.997Z,10.52
2023-06-25T18:28:35.048Z,10.23
2023-06-25T18:31:22.762Z,10.95
2023-06-25T18:34:12.708Z,9.52
2023-06-25T18:37:00.478Z,8.68
2023-06-25T18:39:48.340Z,7.88
2023-06-25T18:42:36.093Z,6.63
2023-06-25T18:45:24.178Z,7.57
2023-06-25T18:48:11.988Z,6.53
2023-06-25T18:51:01.348Z,7.57
2023-06-25T18:53:49.164Z,6.25
2023-06-25T18:56:37.171Z,7.88
2023-06-25T18:59:24.918Z,7.93
2023-06-25T19:02:12.798Z,7.68
2023-06-25T19:05:01.117Z,6.80
2023-06-25T19:07:50.283Z,7.30
2023-06-25T19:10:38.320Z,7.88
2023-06-25T19:13:26.277Z,7.70
2023-06-25T19:16:14.168Z,6.65
2023-06-25T19:19:02.109Z,7.45
2023-06-25T19:21:50.852Z,7.40
2023-06-25T19:24:40.148Z,7.78
2023-06-25T19:27:28.199Z,6.97
2023-06-25T19:30:15.948Z,7.47
2023-06-25T19:33:05.221Z,7.05
2023-06-25T19:35:53.181Z,6.65
2023-06-25T19:38:40.950Z,6.25
2023-06-25T19:41:29.978Z,6.75
2023-06-25T19:44:17.917Z,6.80
2023-06-25T19:47:06.299Z,6.57
2023-06-25T19:49:54.187Z,6.43
2023-06-25T19:52:42.180Z,6.07
2023-06-25T19:55:30.090Z,6.38
2023-06-25T19:58:19.608Z,6.35
2023-06-25T20:01:07.604Z,6.00
2023-06-25T20:03:55.638Z,6.63
2023-06-25T20:06:43.581Z,6.50
2023-06-25T20:09:32.316Z,6.97
2023-06-25T20:12:20.150Z,6.85
2023-06-25T20:15:10.552Z,5.93
2023-06-25T20:17:58.435Z,4.95
2023-06-25T20:20:46.276Z,5.28
2023-06-25T20:23:34.205Z,5.65
2023-06-25T20:26:22.175Z,4.40
2023-06-25T20:29:10.073Z,5.47
2023-06-25T20:31:59.344Z,5.25
2023-06-25T20:34:47.405Z,5.35
2023-06-25T20:37:35.193Z,5.53
2023-06-25T20:40:23.251Z,5.07
2023-06-25T20:43:11.054Z,4.57
2023-06-25T20:46:02.975Z,5.53
2023-06-25T20:48:52.160Z,4.88
2023-06-25T20:51:39.893Z,5.00
2023-06-25T20:54:29.573Z,4.60
2023-06-25T20:57:17.324Z,5.38
2023-06-25T21:00:06.445Z,5.18
2023-06-25T21:02:56.755Z,5.00
2023-06-25T21:05:46.585Z,4.32
2023-06-25T21:08:34.622Z,5.80
2023-06-25T21:11:22.426Z,4.70
2023-06-25T21:14:10.168Z,5.13
2023-06-25T21:16:57.904Z,4.85
2023-06-25T21:19:45.643Z,4.68
2023-06-25T21:22:35.145Z,4.72
2023-06-25T21:25:23.078Z,5.93
2023-06-25T21:28:10.836Z,5.85
2023-06-25T21:30:58.917Z,5.40
2023-06-25T21:33:46.888Z,5.65
2023-06-25T21:36:34.902Z,6.70
2023-06-25T21:39:24.306Z,6.07
2023-06-25T21:42:12.139Z,6.10
2023-06-25T21:45:00.034Z,8.70
2023-06-25T21:47:47.741Z,8.02
2023-06-25T21:50:37.120Z,7.28
2023-06-25T21:53:25.396Z,11.57
2023-06-25T21:56:14.782Z,8.35
2023-06-25T21:59:02.640Z,7.10
2023-06-25T22:01:50.792Z,6.28
2023-06-25T22:04:38.581Z,6.60
2023-06-25T22:07:26.870Z,12.85
2023-06-25T22:10:14.775Z,9.93
2023-06-25T22:13:04.016Z,9.10
2023-06-25T22:15:51.789Z,8.18
2023-06-25T22:18:39.771Z,6.97
2023-06-25T22:21:29.463Z,8.00
2023-06-25T22:24:17.394Z,7.30
2023-06-25T22:27:05.912Z,7.97
2023-06-25T22:29:55.055Z,6.95
2023-06-25T22:32:43.264Z,7.38
2023-06-25T22:35:31.308Z,6.82
2023-06-25T22:38:20.585Z,6.32
2023-06-25T22:41:08.409Z,6.95
2023-06-25T22:43:56.300Z,6.72
2023-06-25T22:46:46.190Z,6.68
2023-06-25T22:49:34.056Z,7.00
2023-06-25T22:52:21.848Z,7.07
2023-06-25T22:55:10.063Z,6.60
2023-06-25T22:57:58.002Z,6.93
2023-06-25T23:00:45.808Z,6.68
2023-06-25T23:03:35.250Z,7.82
2023-06-25T23:06:23.346Z,6.88
2023-06-25T23:09:14.944Z,6.05
2023-06-25T23:12:02.923Z,6.50
2023-06-25T23:14:50.598Z,6.43
2023-06-25T23:17:38.617Z,7.13
2023-06-25T23:20:27.845Z,6.90
2023-06-25T23:23:17.073Z,6.80
2023-06-25T23:26:09.198Z,6.55
2023-06-25T23:28:57.294Z,5.45
2023-06-25T23:31:45.650Z,5.43
2023-06-25T23:34:33.821Z,6.40
2023-06-25T23:37:25.653Z,7.30
2023-06-25T23:40:14.414Z,6.57
2023-06-25T23:43:02.412Z,6.60
2023-06-25T23:45:50.279Z,6.13
2023-06-25T23:48:38.348Z,7.15
2023-06-25T23:51:26.187Z,7.20
2023-06-25T23:54:15.629Z,6.80
2023-06-25T23:57:03.413Z,6.13
2023-06-25T23:59:51.285Z,6.82
